WAT79 KSDF-TNCM
Flight info
| Callsign | WAT79 |
|---|---|
| Flight time | N/A |
| Altitude | 41000 |
| Route | LOKRD1 BILET DCT PETEE DCT CERDA DCT FIPEK Y355 SLUGO ULUBA1 |
| Aircraft | C750/M-SBDE3FGHRWXY/S |
Departure
| Time | 2026-05-05 19:58 |
|---|---|
| Airport | Louisville Muhammad Ali International Airport (KSDF) |
Arrival
| Time | N/A |
|---|---|
| Airport | Princess Juliana International Airport (TNCM) |
| Time | Latitude | Longitude | Altitude | Speed | Heading |
|---|---|---|---|---|---|
| 2026-05-05 19:29 | 38.18382 | -85.72634 | 495 ft | 0 kts | 257° |
| 2026-05-05 19:55 | 38.18378 | -85.72650 | 495 ft | 4 kts | 249° |
| 2026-05-05 19:55 | 38.18337 | -85.72716 | 494 ft | 12 kts | 238° |
| 2026-05-05 19:55 | 38.18356 | -85.72794 | 495 ft | 10 kts | 351° |
| 2026-05-05 19:55 | 38.18419 | -85.72809 | 496 ft | 8 kts | 344° |
| 2026-05-05 19:56 | 38.18489 | -85.72835 | 497 ft | 12 kts | 343° |
| 2026-05-05 19:56 | 38.18575 | -85.72865 | 498 ft | 12 kts | 343° |
| 2026-05-05 19:56 | 38.18653 | -85.72900 | 498 ft | 11 kts | 311° |
| 2026-05-05 19:56 | 38.18655 | -85.72989 | 498 ft | 9 kts | 254° |
| 2026-05-05 19:57 | 38.18647 | -85.73022 | 497 ft | 0 kts | 253° |
| 2026-05-05 19:57 | 38.18642 | -85.73041 | 496 ft | 6 kts | 252° |
| 2026-05-05 19:57 | 38.18588 | -85.73090 | 494 ft | 13 kts | 171° |
| 2026-05-05 19:57 | 38.18297 | -85.72988 | 491 ft | 83 kts | 164° |
| 2026-05-05 19:58 | 38.17792 | -85.72817 | 484 ft | 139 kts | 166° |
| 2026-05-05 19:58 | 38.16691 | -85.72416 | 816 ft | 182 kts | 165° |
| 2026-05-05 19:58 | 38.15453 | -85.71922 | 1883 ft | 188 kts | 167° |
| 2026-05-05 19:58 | 38.14313 | -85.71532 | 3222 ft | 177 kts | 173° |
| 2026-05-05 19:59 | 38.13111 | -85.71171 | 4217 ft | 188 kts | 172° |
| 2026-05-05 19:59 | 38.11858 | -85.70760 | 5308 ft | 193 kts | 173° |
| 2026-05-05 19:59 | 38.10578 | -85.70334 | 6384 ft | 196 kts | 173° |
| 2026-05-05 19:59 | 38.09258 | -85.69891 | 7388 ft | 202 kts | 174° |
| 2026-05-05 20:00 | 38.07971 | -85.69112 | 8307 ft | 224 kts | 146° |
| 2026-05-05 20:00 | 38.06886 | -85.67654 | 9266 ft | 232 kts | 142° |
| 2026-05-05 20:00 | 38.05772 | -85.66213 | 10174 ft | 236 kts | 143° |
| 2026-05-05 20:00 | 38.04602 | -85.64708 | 11016 ft | 246 kts | 142° |
| 2026-05-05 20:01 | 38.03330 | -85.63075 | 11442 ft | 274 kts | 142° |
| 2026-05-05 20:01 | 38.01909 | -85.61372 | 11882 ft | 294 kts | 153° |
| 2026-05-05 20:01 | 38.00053 | -85.60192 | 12377 ft | 310 kts | 162° |
| 2026-05-05 20:01 | 37.98032 | -85.58947 | 12817 ft | 335 kts | 160° |
| 2026-05-05 20:02 | 37.95865 | -85.57615 | 13513 ft | 349 kts | 159° |
| 2026-05-05 20:02 | 37.93703 | -85.56274 | 14414 ft | 347 kts | 160° |
| 2026-05-05 20:02 | 37.91518 | -85.54935 | 14934 ft | 352 kts | 160° |
| 2026-05-05 20:02 | 37.89301 | -85.53567 | 15408 ft | 359 kts | 160° |
| 2026-05-05 20:03 | 37.87040 | -85.52187 | 16055 ft | 366 kts | 160° |
| 2026-05-05 20:03 | 37.84739 | -85.50772 | 16739 ft | 372 kts | 160° |
| 2026-05-05 20:03 | 37.82411 | -85.49342 | 17469 ft | 375 kts | 160° |
| 2026-05-05 20:03 | 37.80054 | -85.47897 | 18055 ft | 382 kts | 160° |
| 2026-05-05 20:04 | 37.77647 | -85.46424 | 18681 ft | 387 kts | 160° |
| 2026-05-05 20:04 | 37.75214 | -85.44933 | 19316 ft | 390 kts | 160° |
| 2026-05-05 20:04 | 37.72762 | -85.43436 | 19908 ft | 395 kts | 160° |
| 2026-05-05 20:04 | 37.70270 | -85.41914 | 20480 ft | 400 kts | 160° |
| 2026-05-05 20:05 | 37.67760 | -85.40385 | 20995 ft | 405 kts | 160° |
| 2026-05-05 20:05 | 37.65224 | -85.38834 | 21558 ft | 409 kts | 161° |
| 2026-05-05 20:05 | 37.62663 | -85.37273 | 22131 ft | 411 kts | 161° |
| 2026-05-05 20:05 | 37.60045 | -85.35683 | 22571 ft | 418 kts | 161° |
| 2026-05-05 20:06 | 37.57428 | -85.34092 | 23012 ft | 422 kts | 162° |
| 2026-05-05 20:06 | 37.54695 | -85.32986 | 23538 ft | 407 kts | 180° |
| 2026-05-05 20:06 | 37.51891 | -85.32524 | 23998 ft | 410 kts | 181° |
| 2026-05-05 20:06 | 37.49056 | -85.32037 | 24405 ft | 415 kts | 181° |
| 2026-05-05 20:07 | 37.46183 | -85.31551 | 24867 ft | 418 kts | 181° |
| 2026-05-05 20:07 | 37.43256 | -85.31046 | 25270 ft | 423 kts | 181° |
| 2026-05-05 20:07 | 37.40339 | -85.30547 | 25694 ft | 426 kts | 181° |
| 2026-05-05 20:07 | 37.37413 | -85.30045 | 26152 ft | 428 kts | 181° |